This is the latest recevied weather packets stored in our database for station/object DB7GV-8. If no packets are shown the sender has not sent any weather packets the latest 1 day(s).
| Time | Temp. | Humidity | Pressure | Rain* | Wind** | Luminosity | Snow |
|---|---|---|---|---|---|---|---|
| 1777991080 | 19.44° C | 55% | 1009.2 hPa | - | 0 m/s | - | - |
| 1777990175 | 19.44° C | 57% | 1009.2 hPa | - | 0 m/s | - | - |
| 1777989270 | 19.44° C | 56% | 1009.3 hPa | - | 0 m/s | - | - |
| 1777988363 | 19.44° C | 59% | 1009.3 hPa | - | 0 m/s | - | - |
| 1777987458 | 18.89° C | 64% | 1009.5 hPa | - | 0 m/s | - | - |
| 1777986553 | 17.78° C | 72% | 1009.6 hPa | - | 0 m/s | - | - |
| 1777985648 | 17.78° C | 74% | 1009.7 hPa | - | 0 m/s | - | - |
| 1777984742 | 17.22° C | 76% | 1009.7 hPa | - | 0 m/s | - | - |
| 1777983837 | 16.67° C | 79% | 1009.9 hPa | - | 0 m/s | - | - |
| 1777983066 | 16.11° C | 80% | 1010.1 hPa | - | 0 m/s | - | - |
| 1777982026 | 15.56° C | 80% | 1010.2 hPa | - | 0 m/s | - | - |
| 1777981121 | 16.11° C | 78% | 1010.1 hPa | - | 0 m/s | - | - |
| 1777980216 | 15.56° C | 77% | 1010.1 hPa | - | 0 m/s | - | - |
| 1777979309 | 15.56° C | 77% | 1010.2 hPa | - | 0 m/s | - | - |
| 1777978404 | 16.11° C | 77% | 1010.1 hPa | - | 0 m/s | - | - |
| 1777977499 | 16.11° C | 77% | 1010 hPa | - | 0 m/s | - | - |
| 1777976593 | 15.56° C | 75% | 1010 hPa | - | 0 m/s | - | - |
| 1777975688 | 16.11° C | 74% | 1010 hPa | - | 0 m/s | - | - |
| 1777974783 | 15.56° C | 73% | 1010.1 hPa | - | 0 m/s | - | - |
| 1777973877 | 15.56° C | 72% | 1010.4 hPa | - | 0 m/s | - | - |
| 1777972972 | 15° C | 72% | 1010.5 hPa | - | 0 m/s | - | - |
| 1777972067 | 15° C | 70% | 1010.6 hPa | - | 0 m/s | - | - |
| 1777971161 | 15° C | 66% | 1010.6 hPa | - | 0 m/s | - | - |
| 1777970255 | 15.56° C | 64% | 1010.6 hPa | - | 0 m/s | - | - |
| 1777969350 | 16.11° C | 61% | 1010.6 hPa | - | 0 m/s | - | - |
* Rain since midnight (hover to see other rain measurements)
** Current wind speed in m/s (hover to see current wind gust speed)